Buoy 33880

sailwx.info

Track history (hours):
 
Tides and Currents Weather Stations Pressure Air Temp Water Temp Dewpoint Dewpoint Depression Visibility Wind Speed Wind Dir Waves Ship Positions

Drifting buoy 33880

Last reported at 2016-Jul-30 00:00 UTC. Time now 2016-Jul-30 01:57 UTC.
Position S 39°33' W 047°56'.

Date/timePositionNaut miles runAvg speedWind from/ knotsBaromVisibWave heightAir tempDewpointWater temp
2016-Jul-30 00:00S 39°33' W 047°56'0 0.2
2016-Jul-29 21:00S 39°33' W 047°56'1 0.6
2016-Jul-29 19:00S 39°34' W 047°54'2 1.0
2016-Jul-29 17:00S 39°34' W 047°52'1 0.2
2016-Jul-29 13:00S 39°35' W 047°52'2 0.4
2016-Jul-29 08:00S 39°34' W 047°49'0 0.0
2016-Jul-29 06:00S 39°34' W 047°49'5 1.1
2016-Jul-29 02:00S 39°34' W 047°44'3 0.8
2016-Jul-28 22:00S 39°34' W 047°40'0 0.0
2016-Jul-28 21:00S 39°34' W 047°40'1 0.7
2016-Jul-28 19:00S 39°34' W 047°38'10 1.0
2016-Jul-28 09:00S 39°32' W 047°26'5 1.2
2016-Jul-28 05:00S 39°32' W 047°20'12 1.2
2016-Jul-27 19:00S 39°30' W 047°04'8 1.0
2016-Jul-27 11:00S 39°29' W 046°54'1 1.0
2016-Jul-27 10:00S 39°29' W 046°52'5 1.1
2016-Jul-27 05:00S 39°27' W 046°46'7 7.4
2016-Jul-27 04:00S 39°23' W 046°38'0 0.0
2016-Jul-27 01:00S 39°23' W 046°38'2 0.3
2016-Jul-26 17:00S 39°21' W 046°36'10 0.8
2016-Jul-26 05:00S 39°12' W 046°43'10 1.4
2016-Jul-25 22:00S 39°05' W 046°51'7 3.3
2016-Jul-25 20:00S 38°60' W 046°56'0 0.0
2016-Jul-25 19:00S 38°60' W 046°56'1 1.4
2016-Jul-25 18:00S 38°60' W 046°58'9 1.8
2016-Jul-25 13:00S 38°51' W 047°01'4 1.8
2016-Jul-25 11:00S 38°48' W 047°03'5 4.6
2016-Jul-25 10:00S 38°43' W 047°04'14 1.3
2016-Jul-24 23:00S 38°30' W 047°09'7 3.7
2016-Jul-24 21:00S 38°22' W 047°08'1 0.4
2016-Jul-24 18:00S 38°22' W 047°07'12 2.4
2016-Jul-24 13:00S 38°10' W 047°05'2 0.9
2016-Jul-24 11:00S 38°08' W 047°05'4 2.1
2016-Jul-24 09:00S 38°04' W 047°04'13 1.9
2016-Jul-24 02:00S 37°51' W 047°00'7 2.2
2016-Jul-23 23:00S 37°45' W 046°57'6 2.1
2016-Jul-23 20:00S 37°39' W 046°55'4 4.0
2016-Jul-23 19:00S 37°35' W 046°55'1 1.4
2016-Jul-23 18:00S 37°34' W 046°53'3 3.5
2016-Jul-23 17:00S 37°31' W 046°53'43 2.4
2016-Jul-22 23:00S 36°48' W 047°04'1 0.7
2016-Jul-22 21:00S 36°47' W 047°05'4 1.9
2016-Jul-22 19:00S 36°44' W 047°08'3 3.0
2016-Jul-22 18:00S 36°42' W 047°10'0 0.0
2016-Jul-22 17:00S 36°42' W 047°10'13 2.7
2016-Jul-22 12:00S 36°34' W 047°23'3 0.9
2016-Jul-22 09:00S 36°32' W 047°25'7 2.5
2016-Jul-22 06:00S 36°29' W 047°34'6 1.4
2016-Jul-22 02:00S 36°28' W 047°40'1 1.0
2016-Jul-22 01:00S 36°27' W 047°41'6 2.8
2016-Jul-21 23:00S 36°26' W 047°48'4 1.0
2016-Jul-21 19:00S 36°24' W 047°53'21 2.1
2016-Jul-21 09:00S 36°23' W 048°19'4 1.2
2016-Jul-21 06:00S 36°24' W 048°23'16 2.0
2016-Jul-20 22:00S 36°27' W 048°42'4 1.2
2016-Jul-20 19:00S 36°28' W 048°46'6 0.9
2016-Jul-20 13:00S 36°30' W 048°53'9 1.1
2016-Jul-20 05:00S 36°33' W 049°03'4 0.9
2016-Jul-20 01:00S 36°34' W 049°07'1 0.9
2016-Jul-20 00:00S 36°35' W 049°08'  
Track history (hours):
 
Tides and Currents Weather Stations Pressure Air Temp Water Temp Dewpoint Dewpoint Depression Visibility Wind Speed Wind Dir Waves Ship Positions

Drifting buoy 33880

Last reported at 2016-Jul-30 00:00 UTC. Time now 2016-Jul-30 01:57 UTC.
Position S 39°33' W 047°56'.

Date/timePositionNaut miles runAvg speedWind from/ knotsBaromVisibWave heightAir tempDewpointWater temp
2016-Jul-30 00:00S 39°33' W 047°56'0 0.2
2016-Jul-29 21:00S 39°33' W 047°56'1 0.6
2016-Jul-29 19:00S 39°34' W 047°54'2 1.0
2016-Jul-29 17:00S 39°34' W 047°52'1 0.2
2016-Jul-29 13:00S 39°35' W 047°52'2 0.4
2016-Jul-29 08:00S 39°34' W 047°49'0 0.0
2016-Jul-29 06:00S 39°34' W 047°49'5 1.1
2016-Jul-29 02:00S 39°34' W 047°44'3 0.8
2016-Jul-28 22:00S 39°34' W 047°40'0 0.0
2016-Jul-28 21:00S 39°34' W 047°40'1 0.7
2016-Jul-28 19:00S 39°34' W 047°38'10 1.0
2016-Jul-28 09:00S 39°32' W 047°26'5 1.2
2016-Jul-28 05:00S 39°32' W 047°20'12 1.2
2016-Jul-27 19:00S 39°30' W 047°04'8 1.0
2016-Jul-27 11:00S 39°29' W 046°54'1 1.0
2016-Jul-27 10:00S 39°29' W 046°52'5 1.1
2016-Jul-27 05:00S 39°27' W 046°46'7 7.4
2016-Jul-27 04:00S 39°23' W 046°38'0 0.0
2016-Jul-27 01:00S 39°23' W 046°38'2 0.3
2016-Jul-26 17:00S 39°21' W 046°36'10 0.8
2016-Jul-26 05:00S 39°12' W 046°43'10 1.4
2016-Jul-25 22:00S 39°05' W 046°51'7 3.3
2016-Jul-25 20:00S 38°60' W 046°56'0 0.0
2016-Jul-25 19:00S 38°60' W 046°56'1 1.4
2016-Jul-25 18:00S 38°60' W 046°58'9 1.8
2016-Jul-25 13:00S 38°51' W 047°01'4 1.8
2016-Jul-25 11:00S 38°48' W 047°03'5 4.6
2016-Jul-25 10:00S 38°43' W 047°04'14 1.3
2016-Jul-24 23:00S 38°30' W 047°09'7 3.7
2016-Jul-24 21:00S 38°22' W 047°08'1 0.4
2016-Jul-24 18:00S 38°22' W 047°07'12 2.4
2016-Jul-24 13:00S 38°10' W 047°05'2 0.9
2016-Jul-24 11:00S 38°08' W 047°05'4 2.1
2016-Jul-24 09:00S 38°04' W 047°04'13 1.9
2016-Jul-24 02:00S 37°51' W 047°00'7 2.2
2016-Jul-23 23:00S 37°45' W 046°57'6 2.1
2016-Jul-23 20:00S 37°39' W 046°55'4 4.0
2016-Jul-23 19:00S 37°35' W 046°55'1 1.4
2016-Jul-23 18:00S 37°34' W 046°53'3 3.5
2016-Jul-23 17:00S 37°31' W 046°53'43 2.4
2016-Jul-22 23:00S 36°48' W 047°04'1 0.7
2016-Jul-22 21:00S 36°47' W 047°05'4 1.9
2016-Jul-22 19:00S 36°44' W 047°08'3 3.0
2016-Jul-22 18:00S 36°42' W 047°10'0 0.0
2016-Jul-22 17:00S 36°42' W 047°10'13 2.7
2016-Jul-22 12:00S 36°34' W 047°23'3 0.9
2016-Jul-22 09:00S 36°32' W 047°25'7 2.5
2016-Jul-22 06:00S 36°29' W 047°34'6 1.4
2016-Jul-22 02:00S 36°28' W 047°40'1 1.0
2016-Jul-22 01:00S 36°27' W 047°41'6 2.8
2016-Jul-21 23:00S 36°26' W 047°48'4 1.0
2016-Jul-21 19:00S 36°24' W 047°53'21 2.1
2016-Jul-21 09:00S 36°23' W 048°19'4 1.2
2016-Jul-21 06:00S 36°24' W 048°23'16 2.0
2016-Jul-20 22:00S 36°27' W 048°42'4 1.2
2016-Jul-20 19:00S 36°28' W 048°46'6 0.9
2016-Jul-20 13:00S 36°30' W 048°53'9 1.1
2016-Jul-20 05:00S 36°33' W 049°03'4 0.9
2016-Jul-20 01:00S 36°34' W 049°07'1 0.9
2016-Jul-20 00:00S 36°35' W 049°08'  

Dump ship's entire track history